sensor_id;sensor_type;location;lat;lon;timestamp;P1;durP1;ratioP1;P2;durP2;ratioP2
84676;SDS011;74901;55.024;73.254;2023-12-20T00:00:03;12.32;;;3.95;;
84676;SDS011;74901;55.024;73.254;2023-12-20T00:02:49;12.15;;;3.47;;
84676;SDS011;74901;55.024;73.254;2023-12-20T00:05:29;15.93;;;4.82;;
84676;SDS011;74901;55.024;73.254;2023-12-20T00:07:59;15.13;;;5.50;;
84676;SDS011;74901;55.024;73.254;2023-12-20T00:10:43;15.15;;;5.35;;
84676;SDS011;74901;55.024;73.254;2023-12-20T00:13:30;18.98;;;6.10;;
84676;SDS011;74901;55.024;73.254;2023-12-20T00:16:17;18.48;;;5.78;;
84676;SDS011;74901;55.024;73.254;2023-12-20T00:18:46;18.90;;;6.38;;
84676;SDS011;74901;55.024;73.254;2023-12-20T00:21:18;16.00;;;5.57;;
84676;SDS011;74901;55.024;73.254;2023-12-20T00:23:47;17.77;;;5.28;;
84676;SDS011;74901;55.024;73.254;2023-12-20T00:26:19;12.40;;;5.40;;
84676;SDS011;74901;55.024;73.254;2023-12-20T00:28:48;18.05;;;5.28;;
84676;SDS011;74901;55.024;73.254;2023-12-20T00:31:17;21.38;;;6.55;;
84676;SDS011;74901;55.024;73.254;2023-12-20T00:33:46;16.02;;;6.35;;
84676;SDS011;74901;55.024;73.254;2023-12-20T00:36:20;19.85;;;6.10;;
84676;SDS011;74901;55.024;73.254;2023-12-20T00:38:49;23.58;;;7.97;;
84676;SDS011;74901;55.024;73.254;2023-12-20T00:41:22;23.45;;;6.38;;
84676;SDS011;74901;55.024;73.254;2023-12-20T00:43:51;19.48;;;6.90;;
84676;SDS011;74901;55.024;73.254;2023-12-20T00:46:21;17.17;;;5.57;;
84676;SDS011;74901;55.024;73.254;2023-12-20T00:48:53;24.75;;;7.93;;
84676;SDS011;74901;55.024;73.254;2023-12-20T00:55:00;23.83;;;8.27;;
84676;SDS011;74901;55.024;73.254;2023-12-20T00:57:33;22.23;;;7.32;;
84676;SDS011;74901;55.024;73.254;2023-12-20T01:00:28;21.85;;;6.90;;
84676;SDS011;74901;55.024;73.254;2023-12-20T01:03:16;18.92;;;7.05;;
84676;SDS011;74901;55.024;73.254;2023-12-20T01:05:49;25.75;;;10.02;;
84676;SDS011;74901;55.024;73.254;2023-12-20T01:08:18;23.25;;;8.75;;
84676;SDS011;74901;55.024;73.254;2023-12-20T01:10:52;28.17;;;8.77;;
84676;SDS011;74901;55.024;73.254;2023-12-20T01:13:26;22.63;;;7.97;;
84676;SDS011;74901;55.024;73.254;2023-12-20T01:15:55;26.27;;;8.88;;
84676;SDS011;74901;55.024;73.254;2023-12-20T01:18:25;31.15;;;8.45;;
84676;SDS011;74901;55.024;73.254;2023-12-20T01:20:54;23.17;;;9.05;;
84676;SDS011;74901;55.024;73.254;2023-12-20T01:23:42;23.70;;;9.05;;
84676;SDS011;74901;55.024;73.254;2023-12-20T01:26:41;27.00;;;8.48;;
84676;SDS011;74901;55.024;73.254;2023-12-20T01:29:23;23.23;;;9.48;;
84676;SDS011;74901;55.024;73.254;2023-12-20T01:31:52;26.55;;;9.32;;
84676;SDS011;74901;55.024;73.254;2023-12-20T01:34:21;36.15;;;9.68;;
84676;SDS011;74901;55.024;73.254;2023-12-20T01:36:50;35.55;;;9.05;;
84676;SDS011;74901;55.024;73.254;2023-12-20T01:39:19;33.22;;;10.82;;
84676;SDS011;74901;55.024;73.254;2023-12-20T01:41:50;43.35;;;10.70;;
84676;SDS011;74901;55.024;73.254;2023-12-20T01:44:19;46.83;;;10.85;;
84676;SDS011;74901;55.024;73.254;2023-12-20T01:46:49;33.60;;;12.13;;
84676;SDS011;74901;55.024;73.254;2023-12-20T01:49:20;31.65;;;9.52;;
84676;SDS011;74901;55.024;73.254;2023-12-20T01:51:50;38.83;;;11.05;;
84676;SDS011;74901;55.024;73.254;2023-12-20T01:54:20;44.90;;;12.27;;
84676;SDS011;74901;55.024;73.254;2023-12-20T01:56:52;32.35;;;9.95;;
84676;SDS011;74901;55.024;73.254;2023-12-20T01:59:21;33.92;;;10.38;;
84676;SDS011;74901;55.024;73.254;2023-12-20T02:01:53;45.03;;;12.30;;
84676;SDS011;74901;55.024;73.254;2023-12-20T02:04:24;36.25;;;11.35;;
84676;SDS011;74901;55.024;73.254;2023-12-20T02:06:57;37.20;;;11.85;;
84676;SDS011;74901;55.024;73.254;2023-12-20T02:09:27;36.50;;;11.52;;
84676;SDS011;74901;55.024;73.254;2023-12-20T02:12:05;38.15;;;12.18;;
84676;SDS011;74901;55.024;73.254;2023-12-20T02:14:34;46.58;;;11.60;;
84676;SDS011;74901;55.024;73.254;2023-12-20T02:17:05;37.28;;;10.88;;
84676;SDS011;74901;55.024;73.254;2023-12-20T02:19:35;36.95;;;11.32;;
84676;SDS011;74901;55.024;73.254;2023-12-20T02:22:07;38.25;;;12.45;;
84676;SDS011;74901;55.024;73.254;2023-12-20T02:24:37;36.35;;;10.60;;
84676;SDS011;74901;55.024;73.254;2023-12-20T02:27:10;28.48;;;9.98;;
84676;SDS011;74901;55.024;73.254;2023-12-20T02:29:39;30.42;;;10.80;;
84676;SDS011;74901;55.024;73.254;2023-12-20T02:32:11;27.48;;;11.00;;
84676;SDS011;74901;55.024;73.254;2023-12-20T02:34:44;32.38;;;9.85;;
84676;SDS011;74901;55.024;73.254;2023-12-20T02:37:22;23.23;;;8.43;;
84676;SDS011;74901;55.024;73.254;2023-12-20T02:39:59;22.42;;;9.05;;
84676;SDS011;74901;55.024;73.254;2023-12-20T02:42:44;28.75;;;9.30;;
84676;SDS011;74901;55.024;73.254;2023-12-20T02:45:16;22.42;;;8.70;;
84676;SDS011;74901;55.024;73.254;2023-12-20T02:48:10;24.90;;;8.43;;
84676;SDS011;74901;55.024;73.254;2023-12-20T02:51:07;22.98;;;8.90;;
84676;SDS011;74901;55.024;73.254;2023-12-20T02:53:40;25.35;;;9.20;;
84676;SDS011;74901;55.024;73.254;2023-12-20T02:56:09;26.42;;;8.82;;
84676;SDS011;74901;55.024;73.254;2023-12-20T02:58:38;27.52;;;10.38;;
84676;SDS011;74901;55.024;73.254;2023-12-20T03:01:09;33.90;;;11.18;;
84676;SDS011;74901;55.024;73.254;2023-12-20T03:03:38;34.22;;;11.13;;
84676;SDS011;74901;55.024;73.254;2023-12-20T03:06:07;26.15;;;9.93;;
84676;SDS011;74901;55.024;73.254;2023-12-20T03:08:38;31.17;;;10.35;;
84676;SDS011;74901;55.024;73.254;2023-12-20T03:11:07;28.00;;;9.48;;
84676;SDS011;74901;55.024;73.254;2023-12-20T03:13:36;33.97;;;10.85;;
84676;SDS011;74901;55.024;73.254;2023-12-20T03:16:08;29.55;;;9.25;;
84676;SDS011;74901;55.024;73.254;2023-12-20T03:18:37;33.17;;;9.68;;
84676;SDS011;74901;55.024;73.254;2023-12-20T03:21:09;25.15;;;9.15;;
84676;SDS011;74901;55.024;73.254;2023-12-20T03:23:42;34.28;;;10.68;;
84676;SDS011;74901;55.024;73.254;2023-12-20T03:26:11;32.03;;;10.23;;
84676;SDS011;74901;55.024;73.254;2023-12-20T03:28:56;29.05;;;9.57;;
84676;SDS011;74901;55.024;73.254;2023-12-20T03:31:29;25.88;;;8.63;;
84676;SDS011;74901;55.024;73.254;2023-12-20T03:33:58;33.80;;;11.07;;
84676;SDS011;74901;55.024;73.254;2023-12-20T03:36:28;29.55;;;10.68;;
84676;SDS011;74901;55.024;73.254;2023-12-20T03:39:00;30.58;;;10.60;;
84676;SDS011;74901;55.024;73.254;2023-12-20T03:41:29;34.45;;;9.75;;
84676;SDS011;74901;55.024;73.254;2023-12-20T03:43:58;38.13;;;11.10;;
84676;SDS011;74901;55.024;73.254;2023-12-20T03:46:27;27.67;;;9.93;;
84676;SDS011;74901;55.024;73.254;2023-12-20T03:48:56;33.88;;;10.68;;
84676;SDS011;74901;55.024;73.254;2023-12-20T03:51:26;32.70;;;10.00;;
84676;SDS011;74901;55.024;73.254;2023-12-20T03:54:00;26.05;;;9.98;;
84676;SDS011;74901;55.024;73.254;2023-12-20T03:56:30;27.23;;;9.93;;
84676;SDS011;74901;55.024;73.254;2023-12-20T03:58:59;25.65;;;8.43;;
84676;SDS011;74901;55.024;73.254;2023-12-20T04:01:28;32.92;;;10.07;;
84676;SDS011;74901;55.024;73.254;2023-12-20T04:04:50;36.53;;;9.45;;
84676;SDS011;74901;55.024;73.254;2023-12-20T04:07:23;18.25;;;6.88;;
84676;SDS011;74901;55.024;73.254;2023-12-20T04:10:13;25.60;;;10.02;;
84676;SDS011;74901;55.024;73.254;2023-12-20T04:12:42;25.00;;;8.35;;
84676;SDS011;74901;55.024;73.254;2023-12-20T04:15:13;25.30;;;8.80;;
84676;SDS011;74901;55.024;73.254;2023-12-20T04:17:48;28.40;;;10.70;;
84676;SDS011;74901;55.024;73.254;2023-12-20T04:20:19;26.85;;;9.07;;
84676;SDS011;74901;55.024;73.254;2023-12-20T04:22:51;27.65;;;9.52;;
84676;SDS011;74901;55.024;73.254;2023-12-20T04:25:27;23.15;;;9.50;;
84676;SDS011;74901;55.024;73.254;2023-12-20T04:27:56;30.50;;;10.82;;
84676;SDS011;74901;55.024;73.254;2023-12-20T04:30:25;29.67;;;9.65;;
84676;SDS011;74901;55.024;73.254;2023-12-20T04:32:57;26.83;;;9.75;;
84676;SDS011;74901;55.024;73.254;2023-12-20T04:35:29;28.23;;;9.35;;
84676;SDS011;74901;55.024;73.254;2023-12-20T04:38:12;24.35;;;9.25;;
84676;SDS011;74901;55.024;73.254;2023-12-20T04:40:44;27.55;;;9.50;;
84676;SDS011;74901;55.024;73.254;2023-12-20T04:43:16;25.83;;;9.30;;
84676;SDS011;74901;55.024;73.254;2023-12-20T04:45:46;27.10;;;9.57;;
84676;SDS011;74901;55.024;73.254;2023-12-20T04:48:16;27.13;;;8.20;;
84676;SDS011;74901;55.024;73.254;2023-12-20T04:50:45;28.73;;;8.93;;
84676;SDS011;74901;55.024;73.254;2023-12-20T04:53:14;17.05;;;7.72;;
84676;SDS011;74901;55.024;73.254;2023-12-20T04:55:45;24.33;;;8.52;;
84676;SDS011;74901;55.024;73.254;2023-12-20T04:58:14;24.77;;;8.27;;
84676;SDS011;74901;55.024;73.254;2023-12-20T05:00:47;26.00;;;9.70;;
84676;SDS011;74901;55.024;73.254;2023-12-20T05:03:16;26.45;;;9.77;;
84676;SDS011;74901;55.024;73.254;2023-12-20T05:05:49;22.10;;;8.23;;
84676;SDS011;74901;55.024;73.254;2023-12-20T05:08:18;22.42;;;9.25;;
84676;SDS011;74901;55.024;73.254;2023-12-20T05:10:52;29.67;;;9.82;;
84676;SDS011;74901;55.024;73.254;2023-12-20T05:13:26;28.52;;;9.65;;
84676;SDS011;74901;55.024;73.254;2023-12-20T05:15:55;22.70;;;8.63;;
84676;SDS011;74901;55.024;73.254;2023-12-20T05:18:25;20.90;;;8.18;;
84676;SDS011;74901;55.024;73.254;2023-12-20T05:20:54;27.45;;;9.18;;
84676;SDS011;74901;55.024;73.254;2023-12-20T05:23:23;24.45;;;8.50;;
84676;SDS011;74901;55.024;73.254;2023-12-20T05:25:54;24.65;;;8.88;;
84676;SDS011;74901;55.024;73.254;2023-12-20T05:28:23;25.52;;;9.27;;
84676;SDS011;74901;55.024;73.254;2023-12-20T05:30:52;19.02;;;8.10;;
84676;SDS011;74901;55.024;73.254;2023-12-20T05:33:23;23.63;;;8.02;;
84676;SDS011;74901;55.024;73.254;2023-12-20T05:35:52;23.45;;;8.65;;
84676;SDS011;74901;55.024;73.254;2023-12-20T05:38:21;30.40;;;9.02;;
84676;SDS011;74901;55.024;73.254;2023-12-20T05:40:50;24.90;;;8.75;;
84676;SDS011;74901;55.024;73.254;2023-12-20T05:43:24;24.10;;;8.32;;
84676;SDS011;74901;55.024;73.254;2023-12-20T05:45:53;29.67;;;7.85;;
84676;SDS011;74901;55.024;73.254;2023-12-20T05:48:22;21.98;;;8.00;;
84676;SDS011;74901;55.024;73.254;2023-12-20T05:50:51;20.88;;;8.05;;
84676;SDS011;74901;55.024;73.254;2023-12-20T05:53:20;23.90;;;7.82;;
84676;SDS011;74901;55.024;73.254;2023-12-20T05:55:50;23.92;;;8.30;;
84676;SDS011;74901;55.024;73.254;2023-12-20T05:58:21;20.98;;;8.60;;
84676;SDS011;74901;55.024;73.254;2023-12-20T06:00:50;27.13;;;9.95;;
84676;SDS011;74901;55.024;73.254;2023-12-20T06:03:22;25.67;;;9.20;;
84676;SDS011;74901;55.024;73.254;2023-12-20T06:05:51;22.55;;;7.50;;
84676;SDS011;74901;55.024;73.254;2023-12-20T06:08:20;22.90;;;8.63;;
84676;SDS011;74901;55.024;73.254;2023-12-20T06:10:50;25.25;;;9.90;;
84676;SDS011;74901;55.024;73.254;2023-12-20T06:13:21;27.10;;;9.77;;
84676;SDS011;74901;55.024;73.254;2023-12-20T06:15:55;25.67;;;8.68;;
84676;SDS011;74901;55.024;73.254;2023-12-20T06:18:26;28.20;;;8.73;;
84676;SDS011;74901;55.024;73.254;2023-12-20T06:21:04;28.20;;;9.40;;
84676;SDS011;74901;55.024;73.254;2023-12-20T06:23:34;27.20;;;9.40;;
84676;SDS011;74901;55.024;73.254;2023-12-20T06:26:06;27.70;;;9.95;;
84676;SDS011;74901;55.024;73.254;2023-12-20T06:28:48;31.42;;;10.80;;
84676;SDS011;74901;55.024;73.254;2023-12-20T06:31:19;30.38;;;11.13;;
84676;SDS011;74901;55.024;73.254;2023-12-20T06:33:48;34.40;;;11.98;;
84676;SDS011;74901;55.024;73.254;2023-12-20T06:36:24;31.02;;;10.50;;
84676;SDS011;74901;55.024;73.254;2023-12-20T06:38:54;27.17;;;10.20;;
84676;SDS011;74901;55.024;73.254;2023-12-20T06:41:23;24.75;;;9.57;;
84676;SDS011;74901;55.024;73.254;2023-12-20T06:43:54;34.00;;;10.73;;
84676;SDS011;74901;55.024;73.254;2023-12-20T06:46:24;26.90;;;10.38;;
84676;SDS011;74901;55.024;73.254;2023-12-20T06:48:53;36.80;;;12.38;;
84676;SDS011;74901;55.024;73.254;2023-12-20T06:51:23;35.10;;;12.40;;
84676;SDS011;74901;55.024;73.254;2023-12-20T06:53:52;40.58;;;13.25;;
84676;SDS011;74901;55.024;73.254;2023-12-20T06:56:27;37.25;;;13.20;;
84676;SDS011;74901;55.024;73.254;2023-12-20T06:58:58;40.15;;;14.07;;
84676;SDS011;74901;55.024;73.254;2023-12-20T07:01:27;41.80;;;14.15;;
84676;SDS011;74901;55.024;73.254;2023-12-20T07:04:04;42.70;;;12.77;;
84676;SDS011;74901;55.024;73.254;2023-12-20T07:06:39;35.97;;;12.43;;
84676;SDS011;74901;55.024;73.254;2023-12-20T07:09:13;26.05;;;9.98;;
84676;SDS011;74901;55.024;73.254;2023-12-20T07:11:45;32.35;;;10.50;;
84676;SDS011;74901;55.024;73.254;2023-12-20T07:14:16;27.55;;;11.18;;
84676;SDS011;74901;55.024;73.254;2023-12-20T07:16:48;38.03;;;13.93;;
84676;SDS011;74901;55.024;73.254;2023-12-20T07:19:20;34.67;;;12.55;;
84676;SDS011;74901;55.024;73.254;2023-12-20T07:21:49;26.10;;;11.05;;
84676;SDS011;74901;55.024;73.254;2023-12-20T07:24:21;33.60;;;10.45;;
84676;SDS011;74901;55.024;73.254;2023-12-20T07:26:51;25.05;;;10.82;;
84676;SDS011;74901;55.024;73.254;2023-12-20T07:32:11;13.85;;;5.50;;
84676;SDS011;74901;55.024;73.254;2023-12-20T07:34:41;20.88;;;7.57;;
84676;SDS011;74901;55.024;73.254;2023-12-20T07:37:10;22.52;;;7.78;;
84676;SDS011;74901;55.024;73.254;2023-12-20T07:39:39;24.95;;;8.23;;
84676;SDS011;74901;55.024;73.254;2023-12-20T07:42:12;17.92;;;7.50;;
84676;SDS011;74901;55.024;73.254;2023-12-20T07:44:43;26.55;;;8.32;;
84676;SDS011;74901;55.024;73.254;2023-12-20T07:47:14;17.98;;;7.63;;
84676;SDS011;74901;55.024;73.254;2023-12-20T07:49:47;38.25;;;14.88;;
84676;SDS011;74901;55.024;73.254;2023-12-20T07:52:19;18.95;;;6.30;;
84676;SDS011;74901;55.024;73.254;2023-12-20T07:54:48;17.45;;;6.30;;
84676;SDS011;74901;55.024;73.254;2023-12-20T07:57:18;15.30;;;6.22;;
84676;SDS011;74901;55.024;73.254;2023-12-20T07:59:48;18.90;;;7.10;;
84676;SDS011;74901;55.024;73.254;2023-12-20T08:02:18;16.55;;;6.28;;
84676;SDS011;74901;55.024;73.254;2023-12-20T08:04:47;21.92;;;7.05;;
84676;SDS011;74901;55.024;73.254;2023-12-20T08:07:16;15.43;;;6.18;;
84676;SDS011;74901;55.024;73.254;2023-12-20T08:09:45;17.15;;;5.43;;
84676;SDS011;74901;55.024;73.254;2023-12-20T08:12:14;15.32;;;5.20;;
84676;SDS011;74901;55.024;73.254;2023-12-20T08:18:05;13.15;;;4.30;;
84676;SDS011;74901;55.024;73.254;2023-12-20T08:20:34;13.88;;;5.95;;
84676;SDS011;74901;55.024;73.254;2023-12-20T08:23:04;18.40;;;5.30;;
84676;SDS011;74901;55.024;73.254;2023-12-20T08:25:32;16.60;;;5.85;;
84676;SDS011;74901;55.024;73.254;2023-12-20T08:28:03;16.17;;;5.53;;
84676;SDS011;74901;55.024;73.254;2023-12-20T08:30:32;9.38;;;3.05;;
84676;SDS011;74901;55.024;73.254;2023-12-20T08:33:01;14.27;;;4.85;;
84676;SDS011;74901;55.024;73.254;2023-12-20T08:35:47;12.50;;;4.43;;
84676;SDS011;74901;55.024;73.254;2023-12-20T08:38:16;13.70;;;4.90;;
84676;SDS011;74901;55.024;73.254;2023-12-20T08:40:46;11.65;;;4.35;;
84676;SDS011;74901;55.024;73.254;2023-12-20T08:43:46;15.13;;;4.50;;
84676;SDS011;74901;55.024;73.254;2023-12-20T08:46:27;14.65;;;5.28;;
84676;SDS011;74901;55.024;73.254;2023-12-20T08:49:32;15.63;;;4.95;;
84676;SDS011;74901;55.024;73.254;2023-12-20T08:52:40;20.90;;;8.45;;
84676;SDS011;74901;55.024;73.254;2023-12-20T08:55:10;13.32;;;5.30;;
84676;SDS011;74901;55.024;73.254;2023-12-20T08:57:39;11.32;;;4.32;;
84676;SDS011;74901;55.024;73.254;2023-12-20T09:00:11;14.82;;;5.57;;
84676;SDS011;74901;55.024;73.254;2023-12-20T09:02:49;13.30;;;4.78;;
84676;SDS011;74901;55.024;73.254;2023-12-20T09:05:18;12.40;;;4.53;;
84676;SDS011;74901;55.024;73.254;2023-12-20T09:07:51;15.88;;;4.75;;
84676;SDS011;74901;55.024;73.254;2023-12-20T09:10:20;16.58;;;5.32;;
84676;SDS011;74901;55.024;73.254;2023-12-20T09:12:50;13.25;;;4.43;;
84676;SDS011;74901;55.024;73.254;2023-12-20T09:15:25;14.40;;;4.30;;
84676;SDS011;74901;55.024;73.254;2023-12-20T09:17:56;10.70;;;4.25;;
84676;SDS011;74901;55.024;73.254;2023-12-20T09:20:25;11.93;;;4.32;;
84676;SDS011;74901;55.024;73.254;2023-12-20T09:22:55;10.32;;;4.43;;
84676;SDS011;74901;55.024;73.254;2023-12-20T09:25:24;12.27;;;4.82;;
84676;SDS011;74901;55.024;73.254;2023-12-20T09:30:22;12.90;;;5.63;;
84676;SDS011;74901;55.024;73.254;2023-12-20T09:32:52;10.50;;;4.28;;
84676;SDS011;74901;55.024;73.254;2023-12-20T09:35:21;11.23;;;4.40;;
84676;SDS011;74901;55.024;73.254;2023-12-20T09:37:50;18.05;;;4.97;;
84676;SDS011;74901;55.024;73.254;2023-12-20T09:40:35;12.75;;;4.22;;
84676;SDS011;74901;55.024;73.254;2023-12-20T09:43:11;15.93;;;6.80;;
84676;SDS011;74901;55.024;73.254;2023-12-20T09:45:47;14.27;;;5.25;;
84676;SDS011;74901;55.024;73.254;2023-12-20T09:48:22;10.90;;;4.55;;
84676;SDS011;74901;55.024;73.254;2023-12-20T09:50:54;12.80;;;4.72;;
84676;SDS011;74901;55.024;73.254;2023-12-20T09:53:43;11.95;;;4.32;;
84676;SDS011;74901;55.024;73.254;2023-12-20T09:56:17;12.88;;;4.68;;
84676;SDS011;74901;55.024;73.254;2023-12-20T09:58:56;12.63;;;4.90;;
84676;SDS011;74901;55.024;73.254;2023-12-20T10:01:26;13.23;;;3.85;;
84676;SDS011;74901;55.024;73.254;2023-12-20T10:03:56;13.88;;;4.45;;
84676;SDS011;74901;55.024;73.254;2023-12-20T10:06:28;14.68;;;5.03;;
84676;SDS011;74901;55.024;73.254;2023-12-20T10:08:57;12.27;;;4.57;;
84676;SDS011;74901;55.024;73.254;2023-12-20T10:11:32;11.43;;;4.60;;
84676;SDS011;74901;55.024;73.254;2023-12-20T10:14:05;12.85;;;4.13;;
84676;SDS011;74901;55.024;73.254;2023-12-20T10:16:34;10.73;;;4.47;;
84676;SDS011;74901;55.024;73.254;2023-12-20T10:19:04;53.65;;;19.60;;
84676;SDS011;74901;55.024;73.254;2023-12-20T10:21:33;16.98;;;4.82;;
84676;SDS011;74901;55.024;73.254;2023-12-20T10:24:08;14.15;;;4.95;;
84676;SDS011;74901;55.024;73.254;2023-12-20T10:26:46;13.77;;;5.57;;
84676;SDS011;74901;55.024;73.254;2023-12-20T10:29:16;15.30;;;5.32;;
84676;SDS011;74901;55.024;73.254;2023-12-20T10:31:51;16.52;;;5.35;;
84676;SDS011;74901;55.024;73.254;2023-12-20T10:34:24;19.40;;;4.88;;
84676;SDS011;74901;55.024;73.254;2023-12-20T10:36:54;14.20;;;5.28;;
84676;SDS011;74901;55.024;73.254;2023-12-20T10:39:24;17.05;;;6.28;;
84676;SDS011;74901;55.024;73.254;2023-12-20T10:42:09;13.63;;;5.00;;
84676;SDS011;74901;55.024;73.254;2023-12-20T10:44:44;20.98;;;6.28;;
84676;SDS011;74901;55.024;73.254;2023-12-20T10:47:32;16.50;;;5.40;;
84676;SDS011;74901;55.024;73.254;2023-12-20T10:50:09;15.25;;;5.30;;
84676;SDS011;74901;55.024;73.254;2023-12-20T10:52:39;15.77;;;5.78;;
84676;SDS011;74901;55.024;73.254;2023-12-20T10:55:12;17.85;;;6.93;;
84676;SDS011;74901;55.024;73.254;2023-12-20T10:57:49;24.52;;;7.82;;
84676;SDS011;74901;55.024;73.254;2023-12-20T11:00:19;20.42;;;8.13;;
84676;SDS011;74901;55.024;73.254;2023-12-20T11:02:51;27.50;;;8.32;;
84676;SDS011;74901;55.024;73.254;2023-12-20T11:05:46;27.38;;;8.48;;
84676;SDS011;74901;55.024;73.254;2023-12-20T11:08:35;19.05;;;6.05;;
84676;SDS011;74901;55.024;73.254;2023-12-20T11:11:12;23.83;;;9.23;;
84676;SDS011;74901;55.024;73.254;2023-12-20T11:16:27;29.67;;;9.23;;
84676;SDS011;74901;55.024;73.254;2023-12-20T11:19:04;27.23;;;9.70;;
84676;SDS011;74901;55.024;73.254;2023-12-20T11:21:33;23.65;;;9.20;;
84676;SDS011;74901;55.024;73.254;2023-12-20T11:24:04;25.65;;;9.73;;
84676;SDS011;74901;55.024;73.254;2023-12-20T11:26:51;27.33;;;9.75;;
84676;SDS011;74901;55.024;73.254;2023-12-20T11:29:58;22.40;;;7.70;;
84676;SDS011;74901;55.024;73.254;2023-12-20T11:32:48;27.77;;;10.90;;
84676;SDS011;74901;55.024;73.254;2023-12-20T11:35:28;22.05;;;7.90;;
84676;SDS011;74901;55.024;73.254;2023-12-20T11:38:04;25.17;;;9.70;;
84676;SDS011;74901;55.024;73.254;2023-12-20T11:40:36;23.83;;;10.57;;
84676;SDS011;74901;55.024;73.254;2023-12-20T11:43:06;30.25;;;12.73;;
84676;SDS011;74901;55.024;73.254;2023-12-20T11:49:22;28.77;;;11.25;;
84676;SDS011;74901;55.024;73.254;2023-12-20T11:51:55;22.98;;;9.55;;
84676;SDS011;74901;55.024;73.254;2023-12-20T11:54:27;30.52;;;10.23;;
84676;SDS011;74901;55.024;73.254;2023-12-20T11:56:59;20.73;;;9.13;;
84676;SDS011;74901;55.024;73.254;2023-12-20T11:59:28;27.45;;;9.23;;
84676;SDS011;74901;55.024;73.254;2023-12-20T12:01:58;31.13;;;9.40;;
84676;SDS011;74901;55.024;73.254;2023-12-20T12:04:29;26.85;;;9.75;;
84676;SDS011;74901;55.024;73.254;2023-12-20T12:06:59;22.90;;;9.50;;
84676;SDS011;74901;55.024;73.254;2023-12-20T12:09:29;23.70;;;9.95;;
84676;SDS011;74901;55.024;73.254;2023-12-20T12:11:58;24.30;;;9.27;;
84676;SDS011;74901;55.024;73.254;2023-12-20T12:14:30;22.88;;;9.02;;
84676;SDS011;74901;55.024;73.254;2023-12-20T12:17:06;24.73;;;8.82;;
84676;SDS011;74901;55.024;73.254;2023-12-20T12:19:48;30.95;;;11.63;;
84676;SDS011;74901;55.024;73.254;2023-12-20T12:22:18;28.45;;;10.98;;
84676;SDS011;74901;55.024;73.254;2023-12-20T12:24:54;37.15;;;14.52;;
84676;SDS011;74901;55.024;73.254;2023-12-20T12:27:27;34.90;;;13.40;;
84676;SDS011;74901;55.024;73.254;2023-12-20T12:30:02;30.60;;;11.35;;
84676;SDS011;74901;55.024;73.254;2023-12-20T12:32:35;32.40;;;12.90;;
84676;SDS011;74901;55.024;73.254;2023-12-20T12:35:10;30.83;;;11.35;;
84676;SDS011;74901;55.024;73.254;2023-12-20T12:37:39;26.20;;;10.90;;
84676;SDS011;74901;55.024;73.254;2023-12-20T12:40:09;23.45;;;9.30;;
84676;SDS011;74901;55.024;73.254;2023-12-20T12:42:45;27.73;;;9.50;;
84676;SDS011;74901;55.024;73.254;2023-12-20T12:45:19;27.15;;;10.13;;
84676;SDS011;74901;55.024;73.254;2023-12-20T12:50:18;26.00;;;9.60;;
84676;SDS011;74901;55.024;73.254;2023-12-20T12:52:51;21.20;;;8.32;;
84676;SDS011;74901;55.024;73.254;2023-12-20T12:55:20;20.92;;;8.25;;
84676;SDS011;74901;55.024;73.254;2023-12-20T12:57:49;20.13;;;8.35;;
84676;SDS011;74901;55.024;73.254;2023-12-20T13:00:20;16.77;;;6.90;;
84676;SDS011;74901;55.024;73.254;2023-12-20T13:02:52;21.88;;;8.20;;
84676;SDS011;74901;55.024;73.254;2023-12-20T13:05:27;17.42;;;7.03;;
84676;SDS011;74901;55.024;73.254;2023-12-20T13:07:58;20.85;;;8.27;;
84676;SDS011;74901;55.024;73.254;2023-12-20T13:10:32;21.52;;;8.43;;
84676;SDS011;74901;55.024;73.254;2023-12-20T13:13:01;23.13;;;7.07;;
84676;SDS011;74901;55.024;73.254;2023-12-20T13:15:30;17.63;;;6.53;;
84676;SDS011;74901;55.024;73.254;2023-12-20T13:17:59;16.67;;;6.95;;
84676;SDS011;74901;55.024;73.254;2023-12-20T13:20:35;16.75;;;7.22;;
84676;SDS011;74901;55.024;73.254;2023-12-20T13:23:06;21.75;;;5.90;;
84676;SDS011;74901;55.024;73.254;2023-12-20T13:25:35;19.70;;;6.80;;
84676;SDS011;74901;55.024;73.254;2023-12-20T13:28:05;16.77;;;5.70;;
84676;SDS011;74901;55.024;73.254;2023-12-20T13:30:36;16.45;;;6.65;;
84676;SDS011;74901;55.024;73.254;2023-12-20T13:33:12;14.57;;;5.80;;
84676;SDS011;74901;55.024;73.254;2023-12-20T13:35:47;16.55;;;4.85;;
84676;SDS011;74901;55.024;73.254;2023-12-20T13:38:17;15.90;;;5.55;;
84676;SDS011;74901;55.024;73.254;2023-12-20T13:40:49;14.25;;;5.43;;
84676;SDS011;74901;55.024;73.254;2023-12-20T13:43:18;21.40;;;6.47;;
84676;SDS011;74901;55.024;73.254;2023-12-20T13:45:48;14.82;;;5.63;;
84676;SDS011;74901;55.024;73.254;2023-12-20T13:48:19;17.52;;;6.05;;
84676;SDS011;74901;55.024;73.254;2023-12-20T13:50:52;17.00;;;7.47;;
84676;SDS011;74901;55.024;73.254;2023-12-20T13:53:25;19.65;;;6.97;;
84676;SDS011;74901;55.024;73.254;2023-12-20T13:55:54;20.40;;;7.07;;
84676;SDS011;74901;55.024;73.254;2023-12-20T13:58:27;17.55;;;6.30;;
84676;SDS011;74901;55.024;73.254;2023-12-20T14:00:58;16.33;;;6.70;;
84676;SDS011;74901;55.024;73.254;2023-12-20T14:03:27;20.52;;;7.57;;
84676;SDS011;74901;55.024;73.254;2023-12-20T14:06:01;22.92;;;8.05;;
84676;SDS011;74901;55.024;73.254;2023-12-20T14:08:31;17.42;;;6.57;;
84676;SDS011;74901;55.024;73.254;2023-12-20T14:11:00;62.03;;;19.05;;
84676;SDS011;74901;55.024;73.254;2023-12-20T14:13:29;21.52;;;8.30;;
84676;SDS011;74901;55.024;73.254;2023-12-20T14:15:59;19.00;;;7.68;;
84676;SDS011;74901;55.024;73.254;2023-12-20T14:18:31;16.80;;;5.88;;
84676;SDS011;74901;55.024;73.254;2023-12-20T14:21:05;17.00;;;6.40;;
84676;SDS011;74901;55.024;73.254;2023-12-20T14:23:34;19.55;;;8.43;;
84676;SDS011;74901;55.024;73.254;2023-12-20T14:26:07;21.50;;;8.25;;
84676;SDS011;74901;55.024;73.254;2023-12-20T14:28:40;22.70;;;7.90;;
84676;SDS011;74901;55.024;73.254;2023-12-20T14:31:13;19.65;;;6.90;;
84676;SDS011;74901;55.024;73.254;2023-12-20T14:33:42;15.00;;;6.97;;
84676;SDS011;74901;55.024;73.254;2023-12-20T14:36:14;16.02;;;7.00;;
84676;SDS011;74901;55.024;73.254;2023-12-20T14:38:45;18.27;;;6.88;;
84676;SDS011;74901;55.024;73.254;2023-12-20T14:41:16;25.00;;;7.85;;
84676;SDS011;74901;55.024;73.254;2023-12-20T14:43:54;21.40;;;7.72;;
84676;SDS011;74901;55.024;73.254;2023-12-20T14:46:27;23.17;;;7.50;;
84676;SDS011;74901;55.024;73.254;2023-12-20T14:49:02;17.67;;;6.28;;
84676;SDS011;74901;55.024;73.254;2023-12-20T14:51:33;66.28;;;22.00;;
84676;SDS011;74901;55.024;73.254;2023-12-20T14:54:05;21.25;;;8.23;;
84676;SDS011;74901;55.024;73.254;2023-12-20T14:56:36;23.65;;;8.95;;
84676;SDS011;74901;55.024;73.254;2023-12-20T14:59:05;23.55;;;8.95;;
84676;SDS011;74901;55.024;73.254;2023-12-20T15:01:37;25.05;;;8.95;;
84676;SDS011;74901;55.024;73.254;2023-12-20T15:04:09;24.83;;;9.90;;
84676;SDS011;74901;55.024;73.254;2023-12-20T15:06:41;32.35;;;10.13;;
84676;SDS011;74901;55.024;73.254;2023-12-20T15:09:23;26.02;;;9.50;;
84676;SDS011;74901;55.024;73.254;2023-12-20T15:11:58;34.90;;;11.25;;